sensor_id;sensor_type;location;lat;lon;timestamp;temperature;humidity
17284;DHT22;8760;52.248;20.952;2022-10-12T00:00:25;6.30;99.90
17284;DHT22;8760;52.248;20.952;2022-10-12T00:02:52;6.30;99.90
17284;DHT22;8760;52.248;20.952;2022-10-12T00:05:20;6.30;99.90
17284;DHT22;8760;52.248;20.952;2022-10-12T00:07:47;6.20;99.90
17284;DHT22;8760;52.248;20.952;2022-10-12T00:10:14;6.20;99.90
17284;DHT22;8760;52.248;20.952;2022-10-12T00:12:42;6.10;99.90
17284;DHT22;8760;52.248;20.952;2022-10-12T00:15:09;6.10;99.90
17284;DHT22;8760;52.248;20.952;2022-10-12T00:17:36;6.10;99.90
17284;DHT22;8760;52.248;20.952;2022-10-12T00:20:04;6.00;99.90
17284;DHT22;8760;52.248;20.952;2022-10-12T00:22:33;6.10;99.90
17284;DHT22;8760;52.248;20.952;2022-10-12T00:25:00;6.00;99.90
17284;DHT22;8760;52.248;20.952;2022-10-12T00:27:27;6.00;99.90
17284;DHT22;8760;52.248;20.952;2022-10-12T00:29:53;6.00;99.90
17284;DHT22;8760;52.248;20.952;2022-10-12T00:32:20;6.00;99.90
17284;DHT22;8760;52.248;20.952;2022-10-12T00:34:47;5.90;99.90
17284;DHT22;8760;52.248;20.952;2022-10-12T00:37:14;5.90;99.90
17284;DHT22;8760;52.248;20.952;2022-10-12T00:39:42;5.90;99.90
17284;DHT22;8760;52.248;20.952;2022-10-12T00:42:10;5.90;99.90
17284;DHT22;8760;52.248;20.952;2022-10-12T00:44:40;5.80;99.90
17284;DHT22;8760;52.248;20.952;2022-10-12T00:47:15;5.80;99.90
17284;DHT22;8760;52.248;20.952;2022-10-12T00:49:45;5.80;99.90
17284;DHT22;8760;52.248;20.952;2022-10-12T00:52:13;5.80;99.90
17284;DHT22;8760;52.248;20.952;2022-10-12T00:54:46;5.80;99.90
17284;DHT22;8760;52.248;20.952;2022-10-12T00:57:15;5.80;99.90
17284;DHT22;8760;52.248;20.952;2022-10-12T00:59:46;5.80;99.90
17284;DHT22;8760;52.248;20.952;2022-10-12T01:02:14;5.90;99.90
17284;DHT22;8760;52.248;20.952;2022-10-12T01:04:42;5.90;99.90
17284;DHT22;8760;52.248;20.952;2022-10-12T01:07:10;6.00;99.90
17284;DHT22;8760;52.248;20.952;2022-10-12T01:09:37;6.00;99.90
17284;DHT22;8760;52.248;20.952;2022-10-12T01:12:06;6.00;99.90
17284;DHT22;8760;52.248;20.952;2022-10-12T01:14:34;6.00;99.90
17284;DHT22;8760;52.248;20.952;2022-10-12T01:17:09;5.90;99.90
17284;DHT22;8760;52.248;20.952;2022-10-12T01:19:58;5.90;99.90
17284;DHT22;8760;52.248;20.952;2022-10-12T01:22:35;5.80;99.90
17284;DHT22;8760;52.248;20.952;2022-10-12T01:25:08;5.80;99.90
17284;DHT22;8760;52.248;20.952;2022-10-12T01:27:45;5.80;99.90
17284;DHT22;8760;52.248;20.952;2022-10-12T01:30:23;5.80;99.90
17284;DHT22;8760;52.248;20.952;2022-10-12T01:33:03;5.70;99.90
17284;DHT22;8760;52.248;20.952;2022-10-12T01:35:38;5.70;99.90
17284;DHT22;8760;52.248;20.952;2022-10-12T01:38:24;5.70;99.90
17284;DHT22;8760;52.248;20.952;2022-10-12T01:40:58;5.70;99.90
17284;DHT22;8760;52.248;20.952;2022-10-12T01:43:32;5.70;99.90
17284;DHT22;8760;52.248;20.952;2022-10-12T01:46:06;5.60;99.90
17284;DHT22;8760;52.248;20.952;2022-10-12T01:48:33;5.60;99.90
17284;DHT22;8760;52.248;20.952;2022-10-12T01:51:01;5.60;99.90
17284;DHT22;8760;52.248;20.952;2022-10-12T01:53:33;5.60;99.90
17284;DHT22;8760;52.248;20.952;2022-10-12T01:56:07;5.60;99.90
17284;DHT22;8760;52.248;20.952;2022-10-12T01:58:51;5.60;99.90
17284;DHT22;8760;52.248;20.952;2022-10-12T02:01:31;5.50;99.90
17284;DHT22;8760;52.248;20.952;2022-10-12T02:04:08;5.50;99.90
17284;DHT22;8760;52.248;20.952;2022-10-12T02:06:41;5.50;99.90
17284;DHT22;8760;52.248;20.952;2022-10-12T02:09:13;5.50;99.90
17284;DHT22;8760;52.248;20.952;2022-10-12T02:11:44;5.40;99.90
17284;DHT22;8760;52.248;20.952;2022-10-12T02:14:14;5.40;99.90
17284;DHT22;8760;52.248;20.952;2022-10-12T02:16:46;5.40;99.90
17284;DHT22;8760;52.248;20.952;2022-10-12T02:19:18;5.40;99.90
17284;DHT22;8760;52.248;20.952;2022-10-12T02:21:47;5.40;99.90
17284;DHT22;8760;52.248;20.952;2022-10-12T02:24:16;5.40;99.90
17284;DHT22;8760;52.248;20.952;2022-10-12T02:26:46;5.30;99.90
17284;DHT22;8760;52.248;20.952;2022-10-12T02:29:16;5.30;99.90
17284;DHT22;8760;52.248;20.952;2022-10-12T02:31:53;5.30;99.90
17284;DHT22;8760;52.248;20.952;2022-10-12T02:34:23;5.20;99.90
17284;DHT22;8760;52.248;20.952;2022-10-12T02:36:56;5.30;99.90
17284;DHT22;8760;52.248;20.952;2022-10-12T02:39:29;5.30;99.90
17284;DHT22;8760;52.248;20.952;2022-10-12T02:42:04;5.30;99.90
17284;DHT22;8760;52.248;20.952;2022-10-12T02:44:34;5.20;99.90
17284;DHT22;8760;52.248;20.952;2022-10-12T02:47:04;5.20;99.90
17284;DHT22;8760;52.248;20.952;2022-10-12T02:49:33;5.20;99.90
17284;DHT22;8760;52.248;20.952;2022-10-12T02:52:02;5.20;99.90
17284;DHT22;8760;52.248;20.952;2022-10-12T02:54:29;5.20;99.90
17284;DHT22;8760;52.248;20.952;2022-10-12T02:56:59;5.20;99.90
17284;DHT22;8760;52.248;20.952;2022-10-12T02:59:25;5.20;99.90
17284;DHT22;8760;52.248;20.952;2022-10-12T03:01:53;5.30;99.90
17284;DHT22;8760;52.248;20.952;2022-10-12T03:04:21;5.20;99.90
17284;DHT22;8760;52.248;20.952;2022-10-12T03:06:48;5.20;99.90
17284;DHT22;8760;52.248;20.952;2022-10-12T03:09:15;5.20;99.90
17284;DHT22;8760;52.248;20.952;2022-10-12T03:11:42;5.20;99.90
17284;DHT22;8760;52.248;20.952;2022-10-12T03:14:09;5.20;99.90
17284;DHT22;8760;52.248;20.952;2022-10-12T03:16:39;5.20;99.90
17284;DHT22;8760;52.248;20.952;2022-10-12T03:19:07;5.20;99.90
17284;DHT22;8760;52.248;20.952;2022-10-12T03:21:35;5.20;99.90
17284;DHT22;8760;52.248;20.952;2022-10-12T03:24:02;5.20;99.90
17284;DHT22;8760;52.248;20.952;2022-10-12T03:26:29;5.10;99.90
17284;DHT22;8760;52.248;20.952;2022-10-12T03:28:56;5.10;99.90
17284;DHT22;8760;52.248;20.952;2022-10-12T03:31:23;5.20;99.90
17284;DHT22;8760;52.248;20.952;2022-10-12T03:33:50;5.10;99.90
17284;DHT22;8760;52.248;20.952;2022-10-12T03:36:17;5.10;99.90
17284;DHT22;8760;52.248;20.952;2022-10-12T03:38:46;5.10;99.90
17284;DHT22;8760;52.248;20.952;2022-10-12T03:41:12;5.10;99.90
17284;DHT22;8760;52.248;20.952;2022-10-12T03:43:40;5.10;99.90
17284;DHT22;8760;52.248;20.952;2022-10-12T03:46:06;5.00;99.90
17284;DHT22;8760;52.248;20.952;2022-10-12T03:48:33;5.10;99.90
17284;DHT22;8760;52.248;20.952;2022-10-12T03:51:00;5.00;99.90
17284;DHT22;8760;52.248;20.952;2022-10-12T03:53:27;5.10;99.90
17284;DHT22;8760;52.248;20.952;2022-10-12T03:55:56;5.00;99.90
17284;DHT22;8760;52.248;20.952;2022-10-12T03:58:23;5.00;99.90
17284;DHT22;8760;52.248;20.952;2022-10-12T04:00:51;5.20;99.90
17284;DHT22;8760;52.248;20.952;2022-10-12T04:03:19;5.00;99.90
17284;DHT22;8760;52.248;20.952;2022-10-12T04:05:51;5.10;99.90
17284;DHT22;8760;52.248;20.952;2022-10-12T04:08:18;5.10;99.90
17284;DHT22;8760;52.248;20.952;2022-10-12T04:10:45;5.10;99.90
17284;DHT22;8760;52.248;20.952;2022-10-12T04:13:14;5.10;99.90
17284;DHT22;8760;52.248;20.952;2022-10-12T04:15:40;5.10;99.90
17284;DHT22;8760;52.248;20.952;2022-10-12T04:18:07;5.10;99.90
17284;DHT22;8760;52.248;20.952;2022-10-12T04:20:34;5.10;99.90
17284;DHT22;8760;52.248;20.952;2022-10-12T04:23:01;5.20;99.90
17284;DHT22;8760;52.248;20.952;2022-10-12T04:25:28;5.20;99.90
17284;DHT22;8760;52.248;20.952;2022-10-12T04:27:55;5.20;99.90
17284;DHT22;8760;52.248;20.952;2022-10-12T04:30:23;5.20;99.90
17284;DHT22;8760;52.248;20.952;2022-10-12T04:32:50;5.20;99.90
17284;DHT22;8760;52.248;20.952;2022-10-12T04:35:17;5.20;99.90
17284;DHT22;8760;52.248;20.952;2022-10-12T04:37:44;5.20;99.90
17284;DHT22;8760;52.248;20.952;2022-10-12T04:40:11;5.10;99.90
17284;DHT22;8760;52.248;20.952;2022-10-12T04:42:38;5.10;99.90
17284;DHT22;8760;52.248;20.952;2022-10-12T04:45:09;5.00;99.90
17284;DHT22;8760;52.248;20.952;2022-10-12T04:47:37;5.00;99.90
17284;DHT22;8760;52.248;20.952;2022-10-12T04:50:05;5.00;99.90
17284;DHT22;8760;52.248;20.952;2022-10-12T04:52:32;5.00;99.90
17284;DHT22;8760;52.248;20.952;2022-10-12T04:54:59;5.00;99.90
17284;DHT22;8760;52.248;20.952;2022-10-12T04:57:26;5.00;99.90
17284;DHT22;8760;52.248;20.952;2022-10-12T04:59:53;5.00;99.90
17284;DHT22;8760;52.248;20.952;2022-10-12T05:02:20;5.00;99.90
17284;DHT22;8760;52.248;20.952;2022-10-12T05:04:49;5.00;99.90
17284;DHT22;8760;52.248;20.952;2022-10-12T05:07:16;5.00;99.90
17284;DHT22;8760;52.248;20.952;2022-10-12T05:09:43;4.90;99.90
17284;DHT22;8760;52.248;20.952;2022-10-12T05:12:09;4.90;99.90
17284;DHT22;8760;52.248;20.952;2022-10-12T05:14:36;5.00;99.90
17284;DHT22;8760;52.248;20.952;2022-10-12T05:17:03;5.10;99.90
17284;DHT22;8760;52.248;20.952;2022-10-12T05:19:30;5.10;99.90
17284;DHT22;8760;52.248;20.952;2022-10-12T05:21:59;5.10;99.90
17284;DHT22;8760;52.248;20.952;2022-10-12T05:24:26;5.10;99.90
17284;DHT22;8760;52.248;20.952;2022-10-12T05:26:53;5.20;99.90
17284;DHT22;8760;52.248;20.952;2022-10-12T05:29:21;5.20;99.90
17284;DHT22;8760;52.248;20.952;2022-10-12T05:31:47;5.30;99.90
17284;DHT22;8760;52.248;20.952;2022-10-12T05:34:14;5.40;99.90
17284;DHT22;8760;52.248;20.952;2022-10-12T05:36:41;5.40;99.90
17284;DHT22;8760;52.248;20.952;2022-10-12T05:39:10;5.50;99.90
17284;DHT22;8760;52.248;20.952;2022-10-12T05:41:37;5.50;99.90
17284;DHT22;8760;52.248;20.952;2022-10-12T05:44:04;5.60;99.90
17284;DHT22;8760;52.248;20.952;2022-10-12T05:46:32;5.70;99.90
17284;DHT22;8760;52.248;20.952;2022-10-12T05:48:59;5.70;99.90
17284;DHT22;8760;52.248;20.952;2022-10-12T05:51:26;5.80;99.90
17284;DHT22;8760;52.248;20.952;2022-10-12T05:53:52;5.80;99.90
17284;DHT22;8760;52.248;20.952;2022-10-12T05:56:21;5.90;99.90
17284;DHT22;8760;52.248;20.952;2022-10-12T05:58:48;6.00;99.90
17284;DHT22;8760;52.248;20.952;2022-10-12T06:01:15;6.00;99.90
17284;DHT22;8760;52.248;20.952;2022-10-12T06:03:42;6.10;99.90
17284;DHT22;8760;52.248;20.952;2022-10-12T06:06:09;6.30;99.90
17284;DHT22;8760;52.248;20.952;2022-10-12T06:08:36;6.40;99.90
17284;DHT22;8760;52.248;20.952;2022-10-12T06:11:03;6.40;99.90
17284;DHT22;8760;52.248;20.952;2022-10-12T06:13:31;6.50;99.90
17284;DHT22;8760;52.248;20.952;2022-10-12T06:15:58;6.50;99.90
17284;DHT22;8760;52.248;20.952;2022-10-12T06:18:25;6.60;83.10
17284;DHT22;8760;52.248;20.952;2022-10-12T06:20:53;6.70;25.10
17284;DHT22;8760;52.248;20.952;2022-10-12T06:23:21;6.90;1.00
17284;DHT22;8760;52.248;20.952;2022-10-12T06:25:50;7.00;1.00
17284;DHT22;8760;52.248;20.952;2022-10-12T06:28:18;7.00;1.00
17284;DHT22;8760;52.248;20.952;2022-10-12T06:30:52;7.20;1.00
17284;DHT22;8760;52.248;20.952;2022-10-12T06:33:19;7.40;1.00
17284;DHT22;8760;52.248;20.952;2022-10-12T06:35:46;8.00;99.90
17284;DHT22;8760;52.248;20.952;2022-10-12T06:38:13;8.40;1.00
17284;DHT22;8760;52.248;20.952;2022-10-12T06:40:40;8.80;1.00
17284;DHT22;8760;52.248;20.952;2022-10-12T06:43:07;9.20;1.00
17284;DHT22;8760;52.248;20.952;2022-10-12T06:45:35;9.60;99.90
17284;DHT22;8760;52.248;20.952;2022-10-12T06:48:07;10.10;1.00
17284;DHT22;8760;52.248;20.952;2022-10-12T06:50:34;10.80;99.90
17284;DHT22;8760;52.248;20.952;2022-10-12T06:53:01;11.30;30.70
17284;DHT22;8760;52.248;20.952;2022-10-12T06:55:28;11.60;1.00
17284;DHT22;8760;52.248;20.952;2022-10-12T06:57:56;12.00;99.90
17284;DHT22;8760;52.248;20.952;2022-10-12T07:00:23;12.20;99.90
17284;DHT22;8760;52.248;20.952;2022-10-12T07:02:50;12.20;99.90
17284;DHT22;8760;52.248;20.952;2022-10-12T07:05:18;12.50;91.20
17284;DHT22;8760;52.248;20.952;2022-10-12T07:07:47;12.60;1.00
17284;DHT22;8760;52.248;20.952;2022-10-12T07:10:14;12.80;1.00
17284;DHT22;8760;52.248;20.952;2022-10-12T07:12:41;12.40;1.00
17284;DHT22;8760;52.248;20.952;2022-10-12T07:15:09;12.10;1.00
17284;DHT22;8760;52.248;20.952;2022-10-12T07:17:36;11.90;1.00
17284;DHT22;8760;52.248;20.952;2022-10-12T07:20:03;12.10;1.00
17284;DHT22;8760;52.248;20.952;2022-10-12T07:22:33;12.30;3.30
17284;DHT22;8760;52.248;20.952;2022-10-12T07:25:00;12.70;1.00
17284;DHT22;8760;52.248;20.952;2022-10-12T07:27:27;12.60;1.00
17284;DHT22;8760;52.248;20.952;2022-10-12T07:29:54;12.30;1.00
17284;DHT22;8760;52.248;20.952;2022-10-12T07:32:21;12.40;1.00
17284;DHT22;8760;52.248;20.952;2022-10-12T07:34:48;12.90;1.00
17284;DHT22;8760;52.248;20.952;2022-10-12T07:37:15;13.30;1.00
17284;DHT22;8760;52.248;20.952;2022-10-12T07:39:43;13.90;1.00
17284;DHT22;8760;52.248;20.952;2022-10-12T07:42:10;14.20;1.00
17284;DHT22;8760;52.248;20.952;2022-10-12T07:44:37;14.60;1.00
17284;DHT22;8760;52.248;20.952;2022-10-12T07:47:04;15.00;1.00
17284;DHT22;8760;52.248;20.952;2022-10-12T07:49:31;15.30;99.90
17284;DHT22;8760;52.248;20.952;2022-10-12T07:51:58;15.50;99.90
17284;DHT22;8760;52.248;20.952;2022-10-12T07:54:25;15.80;99.90
17284;DHT22;8760;52.248;20.952;2022-10-12T07:56:56;15.90;99.90
17284;DHT22;8760;52.248;20.952;2022-10-12T07:59:26;16.30;99.90
17284;DHT22;8760;52.248;20.952;2022-10-12T08:01:53;16.20;99.90
17284;DHT22;8760;52.248;20.952;2022-10-12T08:04:19;16.30;99.90
17284;DHT22;8760;52.248;20.952;2022-10-12T08:06:46;16.60;99.90
17284;DHT22;8760;52.248;20.952;2022-10-12T08:09:13;16.80;99.90
17284;DHT22;8760;52.248;20.952;2022-10-12T08:11:40;17.00;99.90
17284;DHT22;8760;52.248;20.952;2022-10-12T08:14:13;16.90;99.90
17284;DHT22;8760;52.248;20.952;2022-10-12T08:16:40;17.10;99.90
17284;DHT22;8760;52.248;20.952;2022-10-12T08:19:07;17.50;99.90
17284;DHT22;8760;52.248;20.952;2022-10-12T08:21:35;17.80;99.90
17284;DHT22;8760;52.248;20.952;2022-10-12T08:24:02;18.20;99.90
17284;DHT22;8760;52.248;20.952;2022-10-12T08:26:29;18.30;99.90
17284;DHT22;8760;52.248;20.952;2022-10-12T08:28:55;18.40;99.90
17284;DHT22;8760;52.248;20.952;2022-10-12T08:31:24;18.30;99.90
17284;DHT22;8760;52.248;20.952;2022-10-12T08:33:51;18.20;99.90
17284;DHT22;8760;52.248;20.952;2022-10-12T08:36:18;18.50;99.90
17284;DHT22;8760;52.248;20.952;2022-10-12T08:38:49;18.50;99.90
17284;DHT22;8760;52.248;20.952;2022-10-12T08:41:25;19.00;99.90
17284;DHT22;8760;52.248;20.952;2022-10-12T08:44:11;19.30;99.90
17284;DHT22;8760;52.248;20.952;2022-10-12T08:46:41;19.90;99.90
17284;DHT22;8760;52.248;20.952;2022-10-12T08:49:12;19.90;99.90
17284;DHT22;8760;52.248;20.952;2022-10-12T08:51:46;20.10;99.90
17284;DHT22;8760;52.248;20.952;2022-10-12T08:54:16;20.30;99.90
17284;DHT22;8760;52.248;20.952;2022-10-12T08:56:44;20.40;99.90
17284;DHT22;8760;52.248;20.952;2022-10-12T08:59:13;20.50;99.90
17284;DHT22;8760;52.248;20.952;2022-10-12T09:01:52;20.30;99.20
17284;DHT22;8760;52.248;20.952;2022-10-12T09:04:36;20.30;97.40
17284;DHT22;8760;52.248;20.952;2022-10-12T09:07:10;20.00;94.90
17284;DHT22;8760;52.248;20.952;2022-10-12T09:09:47;19.90;93.60
17284;DHT22;8760;52.248;20.952;2022-10-12T09:12:30;19.80;92.70
17284;DHT22;8760;52.248;20.952;2022-10-12T09:15:03;19.80;93.10
17284;DHT22;8760;52.248;20.952;2022-10-12T09:17:35;19.80;92.30
17284;DHT22;8760;52.248;20.952;2022-10-12T09:20:14;19.80;92.00
17284;DHT22;8760;52.248;20.952;2022-10-12T09:22:46;20.00;91.10
17284;DHT22;8760;52.248;20.952;2022-10-12T09:25:21;20.20;89.00
17284;DHT22;8760;52.248;20.952;2022-10-12T09:27:49;20.40;85.40
17284;DHT22;8760;52.248;20.952;2022-10-12T09:30:18;20.50;97.70
17284;DHT22;8760;52.248;20.952;2022-10-12T09:32:56;20.70;79.60
17284;DHT22;8760;52.248;20.952;2022-10-12T09:35:26;21.00;72.60
17284;DHT22;8760;52.248;20.952;2022-10-12T09:37:53;20.90;66.60
17284;DHT22;8760;52.248;20.952;2022-10-12T09:40:22;20.70;64.80
17284;DHT22;8760;52.248;20.952;2022-10-12T09:42:51;21.10;63.40
17284;DHT22;8760;52.248;20.952;2022-10-12T09:45:20;21.70;58.20
17284;DHT22;8760;52.248;20.952;2022-10-12T09:48:11;21.90;54.50
17284;DHT22;8760;52.248;20.952;2022-10-12T09:50:41;22.30;47.40
17284;DHT22;8760;52.248;20.952;2022-10-12T09:53:19;22.00;39.60
17284;DHT22;8760;52.248;20.952;2022-10-12T09:55:56;21.60;38.70
17284;DHT22;8760;52.248;20.952;2022-10-12T09:58:24;21.60;37.00
17284;DHT22;8760;52.248;20.952;2022-10-12T10:01:18;21.50;34.90
17284;DHT22;8760;52.248;20.952;2022-10-12T10:03:49;21.70;34.70
17284;DHT22;8760;52.248;20.952;2022-10-12T10:06:22;22.20;31.90
17284;DHT22;8760;52.248;20.952;2022-10-12T10:08:49;22.60;29.10
17284;DHT22;8760;52.248;20.952;2022-10-12T10:11:20;22.80;27.30
17284;DHT22;8760;52.248;20.952;2022-10-12T10:13:50;23.30;22.80
17284;DHT22;8760;52.248;20.952;2022-10-12T10:16:19;23.00;17.80
17284;DHT22;8760;52.248;20.952;2022-10-12T10:18:55;22.70;15.90
17284;DHT22;8760;52.248;20.952;2022-10-12T10:21:31;22.20;15.90
17284;DHT22;8760;52.248;20.952;2022-10-12T10:24:00;22.20;16.10
17284;DHT22;8760;52.248;20.952;2022-10-12T10:26:29;22.60;15.20
17284;DHT22;8760;52.248;20.952;2022-10-12T10:29:15;22.80;14.40
17284;DHT22;8760;52.248;20.952;2022-10-12T10:31:42;22.60;13.50
17284;DHT22;8760;52.248;20.952;2022-10-12T10:34:19;22.80;14.00
17284;DHT22;8760;52.248;20.952;2022-10-12T10:36:48;23.00;10.50
17284;DHT22;8760;52.248;20.952;2022-10-12T10:39:19;23.40;9.70
17284;DHT22;8760;52.248;20.952;2022-10-12T10:41:47;22.90;7.80
17284;DHT22;8760;52.248;20.952;2022-10-12T10:44:24;22.50;7.20
17284;DHT22;8760;52.248;20.952;2022-10-12T10:46:52;22.40;9.00
17284;DHT22;8760;52.248;20.952;2022-10-12T10:49:26;22.80;8.50
17284;DHT22;8760;52.248;20.952;2022-10-12T10:51:56;22.60;6.70
17284;DHT22;8760;52.248;20.952;2022-10-12T10:54:27;21.50;4.80
17284;DHT22;8760;52.248;20.952;2022-10-12T10:56:58;20.00;5.80
17284;DHT22;8760;52.248;20.952;2022-10-12T10:59:41;19.30;11.70
17284;DHT22;8760;52.248;20.952;2022-10-12T11:02:24;18.50;13.50
17284;DHT22;8760;52.248;20.952;2022-10-12T11:04:59;17.90;18.70
17284;DHT22;8760;52.248;20.952;2022-10-12T11:07:34;17.50;26.00
17284;DHT22;8760;52.248;20.952;2022-10-12T11:10:09;17.10;29.10
17284;DHT22;8760;52.248;20.952;2022-10-12T11:12:42;16.80;36.50
17284;DHT22;8760;52.248;20.952;2022-10-12T11:15:16;16.60;43.70
17284;DHT22;8760;52.248;20.952;2022-10-12T11:17:48;16.50;51.60
17284;DHT22;8760;52.248;20.952;2022-10-12T11:20:35;16.30;57.20
17284;DHT22;8760;52.248;20.952;2022-10-12T11:23:08;16.40;61.50
17284;DHT22;8760;52.248;20.952;2022-10-12T11:25:41;16.40;63.30
17284;DHT22;8760;52.248;20.952;2022-10-12T11:28:13;16.30;65.60
17284;DHT22;8760;52.248;20.952;2022-10-12T11:30:44;16.10;71.30
17284;DHT22;8760;52.248;20.952;2022-10-12T11:33:18;16.10;76.50
17284;DHT22;8760;52.248;20.952;2022-10-12T11:35:48;15.90;80.00
17284;DHT22;8760;52.248;20.952;2022-10-12T11:38:20;16.00;86.70
17284;DHT22;8760;52.248;20.952;2022-10-12T11:40:53;16.10;90.60
17284;DHT22;8760;52.248;20.952;2022-10-12T11:43:23;16.10;90.20
17284;DHT22;8760;52.248;20.952;2022-10-12T11:45:53;16.20;92.00
17284;DHT22;8760;52.248;20.952;2022-10-12T11:48:26;16.30;91.70
17284;DHT22;8760;52.248;20.952;2022-10-12T11:50:56;16.30;93.70
17284;DHT22;8760;52.248;20.952;2022-10-12T11:53:30;16.30;92.70
17284;DHT22;8760;52.248;20.952;2022-10-12T11:56:06;16.20;93.70
17284;DHT22;8760;52.248;20.952;2022-10-12T11:58:38;16.30;93.40
17284;DHT22;8760;52.248;20.952;2022-10-12T12:01:15;16.20;93.20
17284;DHT22;8760;52.248;20.952;2022-10-12T12:04:06;16.20;92.70
17284;DHT22;8760;52.248;20.952;2022-10-12T12:06:54;16.10;94.60
17284;DHT22;8760;52.248;20.952;2022-10-12T12:09:34;16.10;97.70
17284;DHT22;8760;52.248;20.952;2022-10-12T12:12:22;16.00;96.40
17284;DHT22;8760;52.248;20.952;2022-10-12T12:15:09;15.70;93.70
17284;DHT22;8760;52.248;20.952;2022-10-12T12:18:10;15.50;99.10
17284;DHT22;8760;52.248;20.952;2022-10-12T12:21:01;15.40;99.90
17284;DHT22;8760;52.248;20.952;2022-10-12T12:23:36;15.30;99.90
17284;DHT22;8760;52.248;20.952;2022-10-12T12:26:11;15.20;99.90
17284;DHT22;8760;52.248;20.952;2022-10-12T12:28:41;15.10;99.90
17284;DHT22;8760;52.248;20.952;2022-10-12T12:31:12;15.10;99.90
17284;DHT22;8760;52.248;20.952;2022-10-12T12:33:42;15.20;99.90
17284;DHT22;8760;52.248;20.952;2022-10-12T12:36:13;15.50;99.90
17284;DHT22;8760;52.248;20.952;2022-10-12T12:38:47;15.80;99.90
17284;DHT22;8760;52.248;20.952;2022-10-12T12:41:17;16.00;99.90
17284;DHT22;8760;52.248;20.952;2022-10-12T12:43:58;16.20;99.90
17284;DHT22;8760;52.248;20.952;2022-10-12T12:49:40;16.30;99.90
17284;DHT22;8760;52.248;20.952;2022-10-12T12:52:24;16.10;98.80
17284;DHT22;8760;52.248;20.952;2022-10-12T13:00:57;16.10;99.90
17284;DHT22;8760;52.248;20.952;2022-10-12T13:03:48;16.00;99.90
17284;DHT22;8760;52.248;20.952;2022-10-12T13:06:49;15.80;99.90
17284;DHT22;8760;52.248;20.952;2022-10-12T13:09:51;15.60;99.90
17284;DHT22;8760;52.248;20.952;2022-10-12T13:12:44;15.40;99.90
17284;DHT22;8760;52.248;20.952;2022-10-12T13:15:24;15.40;99.90
17284;DHT22;8760;52.248;20.952;2022-10-12T13:21:04;15.70;99.90
17284;DHT22;8760;52.248;20.952;2022-10-12T13:23:33;15.90;99.90
17284;DHT22;8760;52.248;20.952;2022-10-12T13:26:06;16.00;99.90
17284;DHT22;8760;52.248;20.952;2022-10-12T13:28:38;15.80;99.90
17284;DHT22;8760;52.248;20.952;2022-10-12T13:31:14;15.60;99.90
17284;DHT22;8760;52.248;20.952;2022-10-12T13:33:46;15.50;99.90
17284;DHT22;8760;52.248;20.952;2022-10-12T13:36:20;15.70;99.90
17284;DHT22;8760;52.248;20.952;2022-10-12T13:38:53;15.90;99.90
17284;DHT22;8760;52.248;20.952;2022-10-12T13:41:21;16.00;99.90
17284;DHT22;8760;52.248;20.952;2022-10-12T13:43:51;15.90;99.90
17284;DHT22;8760;52.248;20.952;2022-10-12T13:49:16;15.80;99.90
17284;DHT22;8760;52.248;20.952;2022-10-12T13:51:46;15.50;99.90
17284;DHT22;8760;52.248;20.952;2022-10-12T13:54:19;15.40;99.90
17284;DHT22;8760;52.248;20.952;2022-10-12T13:56:49;15.20;99.90
17284;DHT22;8760;52.248;20.952;2022-10-12T13:59:20;15.20;99.90
17284;DHT22;8760;52.248;20.952;2022-10-12T14:01:53;15.10;99.90
17284;DHT22;8760;52.248;20.952;2022-10-12T14:04:21;15.10;99.90
17284;DHT22;8760;52.248;20.952;2022-10-12T14:06:55;15.00;99.90
17284;DHT22;8760;52.248;20.952;2022-10-12T14:09:24;15.00;99.90
17284;DHT22;8760;52.248;20.952;2022-10-12T14:11:52;14.90;99.90
17284;DHT22;8760;52.248;20.952;2022-10-12T14:14:27;14.90;99.90
17284;DHT22;8760;52.248;20.952;2022-10-12T14:16:56;14.90;99.90
17284;DHT22;8760;52.248;20.952;2022-10-12T14:19:34;14.80;99.90
17284;DHT22;8760;52.248;20.952;2022-10-12T14:22:02;14.80;99.90
17284;DHT22;8760;52.248;20.952;2022-10-12T14:24:29;14.80;99.90
17284;DHT22;8760;52.248;20.952;2022-10-12T14:26:58;14.70;99.90
17284;DHT22;8760;52.248;20.952;2022-10-12T14:29:31;14.60;99.90
17284;DHT22;8760;52.248;20.952;2022-10-12T14:31:59;14.60;99.90
17284;DHT22;8760;52.248;20.952;2022-10-12T14:34:40;14.50;99.90
17284;DHT22;8760;52.248;20.952;2022-10-12T14:37:22;14.40;99.90
17284;DHT22;8760;52.248;20.952;2022-10-12T14:39:51;14.30;99.90
17284;DHT22;8760;52.248;20.952;2022-10-12T14:42:27;14.20;99.90
17284;DHT22;8760;52.248;20.952;2022-10-12T14:44:54;14.10;99.90
17284;DHT22;8760;52.248;20.952;2022-10-12T14:47:22;14.10;1.00
17284;DHT22;8760;52.248;20.952;2022-10-12T14:49:53;14.10;1.00
17284;DHT22;8760;52.248;20.952;2022-10-12T14:52:22;14.00;1.00
17284;DHT22;8760;52.248;20.952;2022-10-12T14:54:50;14.00;1.00
17284;DHT22;8760;52.248;20.952;2022-10-12T14:57:18;13.90;1.00
17284;DHT22;8760;52.248;20.952;2022-10-12T14:59:45;13.80;1.00
17284;DHT22;8760;52.248;20.952;2022-10-12T15:02:15;13.80;1.00
17284;DHT22;8760;52.248;20.952;2022-10-12T15:04:43;13.80;1.00
17284;DHT22;8760;52.248;20.952;2022-10-12T15:07:18;13.80;1.00
17284;DHT22;8760;52.248;20.952;2022-10-12T15:09:45;13.70;1.00
17284;DHT22;8760;52.248;20.952;2022-10-12T15:12:14;13.70;1.00
17284;DHT22;8760;52.248;20.952;2022-10-12T15:14:42;13.70;1.00
17284;DHT22;8760;52.248;20.952;2022-10-12T15:17:10;13.60;1.00
17284;DHT22;8760;52.248;20.952;2022-10-12T15:19:42;13.60;99.90
17284;DHT22;8760;52.248;20.952;2022-10-12T15:22:17;13.50;99.90
17284;DHT22;8760;52.248;20.952;2022-10-12T15:24:44;13.50;1.00
17284;DHT22;8760;52.248;20.952;2022-10-12T15:27:12;13.40;99.90
17284;DHT22;8760;52.248;20.952;2022-10-12T15:29:39;13.40;99.90
17284;DHT22;8760;52.248;20.952;2022-10-12T15:32:09;13.40;99.90
17284;DHT22;8760;52.248;20.952;2022-10-12T15:34:37;13.30;99.90
17284;DHT22;8760;52.248;20.952;2022-10-12T15:37:04;13.30;99.90
17284;DHT22;8760;52.248;20.952;2022-10-12T15:39:32;13.20;99.90
17284;DHT22;8760;52.248;20.952;2022-10-12T15:41:59;13.10;1.00
17284;DHT22;8760;52.248;20.952;2022-10-12T15:44:26;13.10;1.00
17284;DHT22;8760;52.248;20.952;2022-10-12T15:46:54;13.10;99.90
17284;DHT22;8760;52.248;20.952;2022-10-12T15:49:21;13.00;99.90
17284;DHT22;8760;52.248;20.952;2022-10-12T15:51:51;12.90;1.00
17284;DHT22;8760;52.248;20.952;2022-10-12T15:54:18;12.90;1.00
17284;DHT22;8760;52.248;20.952;2022-10-12T15:56:46;12.80;1.00
17284;DHT22;8760;52.248;20.952;2022-10-12T15:59:13;12.70;99.90
17284;DHT22;8760;52.248;20.952;2022-10-12T16:01:43;12.70;1.00
17284;DHT22;8760;52.248;20.952;2022-10-12T16:04:13;12.70;1.00
17284;DHT22;8760;52.248;20.952;2022-10-12T16:06:40;12.60;1.00
17284;DHT22;8760;52.248;20.952;2022-10-12T16:09:07;12.70;99.90
17284;DHT22;8760;52.248;20.952;2022-10-12T16:11:34;12.70;1.00
17284;DHT22;8760;52.248;20.952;2022-10-12T16:14:03;12.60;1.00
17284;DHT22;8760;52.248;20.952;2022-10-12T16:16:31;12.60;1.00